sensor_id;sensor_type;location;lat;lon;timestamp;pressure;altitude;pressure_sealevel;temperature;humidity
85055;BME280;75391;48.300;16.352;2024-01-15T00:01:09;98529.25;;;0.18;100.00
85055;BME280;75391;48.300;16.352;2024-01-15T00:03:35;98523.03;;;0.58;100.00
85055;BME280;75391;48.300;16.352;2024-01-15T00:06:00;98524.13;;;0.49;100.00
85055;BME280;75391;48.300;16.352;2024-01-15T00:08:26;98514.47;;;0.54;100.00
85055;BME280;75391;48.300;16.352;2024-01-15T00:10:51;98507.59;;;0.51;100.00
85055;BME280;75391;48.300;16.352;2024-01-15T00:13:16;98504.66;;;0.31;100.00
85055;BME280;75391;48.300;16.352;2024-01-15T00:15:42;98506.34;;;0.32;100.00
85055;BME280;75391;48.300;16.352;2024-01-15T00:18:07;98501.22;;;0.31;100.00
85055;BME280;75391;48.300;16.352;2024-01-15T00:20:33;98490.00;;;0.61;100.00
85055;BME280;75391;48.300;16.352;2024-01-15T00:22:58;98493.63;;;0.56;100.00
85055;BME280;75391;48.300;16.352;2024-01-15T00:25:24;98492.88;;;0.50;100.00
85055;BME280;75391;48.300;16.352;2024-01-15T00:27:49;98487.88;;;0.09;100.00
85055;BME280;75391;48.300;16.352;2024-01-15T00:30:15;98477.72;;;0.34;100.00
85055;BME280;75391;48.300;16.352;2024-01-15T00:32:40;98493.41;;;0.63;100.00
85055;BME280;75391;48.300;16.352;2024-01-15T00:35:06;98481.06;;;0.39;100.00
85055;BME280;75391;48.300;16.352;2024-01-15T00:37:31;98482.81;;;0.38;100.00
85055;BME280;75391;48.300;16.352;2024-01-15T00:39:57;98492.84;;;0.52;100.00
85055;BME280;75391;48.300;16.352;2024-01-15T00:42:22;98492.31;;;0.72;100.00
85055;BME280;75391;48.300;16.352;2024-01-15T00:44:47;98495.16;;;0.30;100.00
85055;BME280;75391;48.300;16.352;2024-01-15T00:47:13;98494.03;;;0.05;100.00
85055;BME280;75391;48.300;16.352;2024-01-15T00:49:38;98487.91;;;0.43;100.00
85055;BME280;75391;48.300;16.352;2024-01-15T00:52:04;98493.00;;;0.46;100.00
85055;BME280;75391;48.300;16.352;2024-01-15T00:54:29;98487.09;;;0.05;100.00
85055;BME280;75391;48.300;16.352;2024-01-15T00:56:54;98477.16;;;0.55;100.00
85055;BME280;75391;48.300;16.352;2024-01-15T00:59:20;98475.97;;;0.36;100.00
85055;BME280;75391;48.300;16.352;2024-01-15T01:01:46;98471.09;;;0.22;100.00
85055;BME280;75391;48.300;16.352;2024-01-15T01:04:12;98461.91;;;0.43;100.00
85055;BME280;75391;48.300;16.352;2024-01-15T01:06:38;98461.97;;;0.40;100.00
85055;BME280;75391;48.300;16.352;2024-01-15T01:09:03;98465.56;;;0.34;100.00
85055;BME280;75391;48.300;16.352;2024-01-15T01:11:29;98475.06;;;0.35;100.00
85055;BME280;75391;48.300;16.352;2024-01-15T01:13:54;98484.22;;;0.50;100.00
85055;BME280;75391;48.300;16.352;2024-01-15T01:16:20;98474.63;;;0.52;100.00
85055;BME280;75391;48.300;16.352;2024-01-15T01:18:45;98470.00;;;0.63;100.00
85055;BME280;75391;48.300;16.352;2024-01-15T01:21:10;98478.97;;;0.51;100.00
85055;BME280;75391;48.300;16.352;2024-01-15T01:23:36;98470.09;;;0.60;100.00
85055;BME280;75391;48.300;16.352;2024-01-15T01:26:01;98455.53;;;0.55;100.00
85055;BME280;75391;48.300;16.352;2024-01-15T01:28:27;98458.41;;;0.44;100.00
85055;BME280;75391;48.300;16.352;2024-01-15T01:30:53;98459.16;;;0.15;100.00
85055;BME280;75391;48.300;16.352;2024-01-15T01:33:18;98444.41;;;0.15;100.00
85055;BME280;75391;48.300;16.352;2024-01-15T01:35:44;98453.28;;;0.08;100.00
85055;BME280;75391;48.300;16.352;2024-01-15T01:38:09;98449.69;;;-0.22;100.00
85055;BME280;75391;48.300;16.352;2024-01-15T01:40:35;98441.97;;;0.09;100.00
85055;BME280;75391;48.300;16.352;2024-01-15T01:43:00;98430.81;;;0.06;100.00
85055;BME280;75391;48.300;16.352;2024-01-15T01:45:27;98427.34;;;0.05;100.00
85055;BME280;75391;48.300;16.352;2024-01-15T01:47:53;98406.69;;;0.64;100.00
85055;BME280;75391;48.300;16.352;2024-01-15T01:50:18;98418.59;;;0.73;100.00
85055;BME280;75391;48.300;16.352;2024-01-15T01:52:44;98404.25;;;0.60;100.00
85055;BME280;75391;48.300;16.352;2024-01-15T01:55:10;98404.47;;;0.82;100.00
85055;BME280;75391;48.300;16.352;2024-01-15T01:57:36;98403.06;;;0.71;100.00
85055;BME280;75391;48.300;16.352;2024-01-15T02:00:03;98399.91;;;0.90;100.00
85055;BME280;75391;48.300;16.352;2024-01-15T02:02:36;98392.97;;;0.89;100.00
85055;BME280;75391;48.300;16.352;2024-01-15T02:05:04;98391.56;;;0.78;100.00
85055;BME280;75391;48.300;16.352;2024-01-15T02:07:30;98384.91;;;0.68;100.00
85055;BME280;75391;48.300;16.352;2024-01-15T02:09:56;98370.72;;;0.80;100.00
85055;BME280;75391;48.300;16.352;2024-01-15T02:12:21;98381.16;;;0.78;100.00
85055;BME280;75391;48.300;16.352;2024-01-15T02:14:47;98386.06;;;0.89;100.00
85055;BME280;75391;48.300;16.352;2024-01-15T02:17:12;98383.22;;;0.97;100.00
85055;BME280;75391;48.300;16.352;2024-01-15T02:19:37;98379.28;;;0.84;100.00
85055;BME280;75391;48.300;16.352;2024-01-15T02:22:03;98391.44;;;0.83;100.00
85055;BME280;75391;48.300;16.352;2024-01-15T02:24:28;98391.69;;;1.03;100.00
85055;BME280;75391;48.300;16.352;2024-01-15T02:26:54;98372.69;;;1.00;100.00
85055;BME280;75391;48.300;16.352;2024-01-15T02:29:19;98364.53;;;0.84;100.00
85055;BME280;75391;48.300;16.352;2024-01-15T02:31:45;98371.28;;;0.90;100.00
85055;BME280;75391;48.300;16.352;2024-01-15T02:34:10;98362.34;;;0.98;100.00
85055;BME280;75391;48.300;16.352;2024-01-15T02:36:36;98352.72;;;1.00;100.00
85055;BME280;75391;48.300;16.352;2024-01-15T02:39:01;98361.56;;;0.67;100.00
85055;BME280;75391;48.300;16.352;2024-01-15T02:41:27;98363.16;;;0.71;100.00
85055;BME280;75391;48.300;16.352;2024-01-15T02:43:52;98355.03;;;0.82;100.00
85055;BME280;75391;48.300;16.352;2024-01-15T02:46:17;98363.63;;;0.85;100.00
85055;BME280;75391;48.300;16.352;2024-01-15T02:48:43;98362.94;;;1.08;100.00
85055;BME280;75391;48.300;16.352;2024-01-15T02:51:08;98360.53;;;1.00;100.00
85055;BME280;75391;48.300;16.352;2024-01-15T02:53:36;98366.38;;;1.37;100.00
85055;BME280;75391;48.300;16.352;2024-01-15T02:56:01;98365.53;;;1.08;100.00
85055;BME280;75391;48.300;16.352;2024-01-15T02:58:26;98362.34;;;1.26;100.00
85055;BME280;75391;48.300;16.352;2024-01-15T03:00:52;98385.63;;;1.03;100.00
85055;BME280;75391;48.300;16.352;2024-01-15T03:03:17;98374.47;;;1.27;100.00
85055;BME280;75391;48.300;16.352;2024-01-15T03:05:43;98388.66;;;1.45;100.00
85055;BME280;75391;48.300;16.352;2024-01-15T03:08:08;98396.31;;;1.50;100.00
85055;BME280;75391;48.300;16.352;2024-01-15T03:10:33;98377.66;;;1.37;100.00
85055;BME280;75391;48.300;16.352;2024-01-15T03:12:59;98388.72;;;1.42;100.00
85055;BME280;75391;48.300;16.352;2024-01-15T03:15:24;98380.66;;;1.23;100.00
85055;BME280;75391;48.300;16.352;2024-01-15T03:17:50;98384.75;;;1.32;100.00
85055;BME280;75391;48.300;16.352;2024-01-15T03:20:15;98380.56;;;1.26;100.00
85055;BME280;75391;48.300;16.352;2024-01-15T03:22:41;98386.56;;;1.56;100.00
85055;BME280;75391;48.300;16.352;2024-01-15T03:25:06;98405.38;;;1.38;100.00
85055;BME280;75391;48.300;16.352;2024-01-15T03:27:32;98408.81;;;1.67;100.00
85055;BME280;75391;48.300;16.352;2024-01-15T03:29:57;98408.75;;;1.68;100.00
85055;BME280;75391;48.300;16.352;2024-01-15T03:32:23;98405.31;;;1.68;100.00
85055;BME280;75391;48.300;16.352;2024-01-15T03:34:48;98401.41;;;1.53;100.00
85055;BME280;75391;48.300;16.352;2024-01-15T03:37:14;98409.13;;;1.84;100.00
85055;BME280;75391;48.300;16.352;2024-01-15T03:39:39;98404.25;;;1.73;100.00
85055;BME280;75391;48.300;16.352;2024-01-15T03:42:05;98410.13;;;1.52;100.00
85055;BME280;75391;48.300;16.352;2024-01-15T03:44:31;98397.78;;;1.85;100.00
85055;BME280;75391;48.300;16.352;2024-01-15T03:46:56;98404.06;;;1.78;100.00
85055;BME280;75391;48.300;16.352;2024-01-15T03:49:22;98402.44;;;1.75;100.00
85055;BME280;75391;48.300;16.352;2024-01-15T03:51:47;98401.53;;;2.03;100.00
85055;BME280;75391;48.300;16.352;2024-01-15T03:54:12;98390.63;;;1.92;100.00
85055;BME280;75391;48.300;16.352;2024-01-15T03:56:38;98384.84;;;2.07;100.00
85055;BME280;75391;48.300;16.352;2024-01-15T03:59:03;98383.91;;;1.84;100.00
85055;BME280;75391;48.300;16.352;2024-01-15T04:01:28;98378.53;;;1.63;100.00
85055;BME280;75391;48.300;16.352;2024-01-15T04:03:54;98381.69;;;1.99;100.00
85055;BME280;75391;48.300;16.352;2024-01-15T04:06:20;98384.69;;;1.60;100.00
85055;BME280;75391;48.300;16.352;2024-01-15T04:08:45;98383.28;;;1.76;100.00
85055;BME280;75391;48.300;16.352;2024-01-15T04:11:10;98382.28;;;1.54;100.00
85055;BME280;75391;48.300;16.352;2024-01-15T04:13:36;98370.13;;;1.81;100.00
85055;BME280;75391;48.300;16.352;2024-01-15T04:16:01;98372.78;;;1.79;100.00
85055;BME280;75391;48.300;16.352;2024-01-15T04:18:27;98362.56;;;1.73;100.00
85055;BME280;75391;48.300;16.352;2024-01-15T04:20:52;98357.69;;;1.89;100.00
85055;BME280;75391;48.300;16.352;2024-01-15T04:23:18;98360.56;;;1.81;100.00
85055;BME280;75391;48.300;16.352;2024-01-15T04:25:43;98363.69;;;1.66;100.00
85055;BME280;75391;48.300;16.352;2024-01-15T04:28:09;98373.47;;;1.58;100.00
85055;BME280;75391;48.300;16.352;2024-01-15T04:30:34;98350.84;;;1.33;100.00
85055;BME280;75391;48.300;16.352;2024-01-15T04:33:00;98379.03;;;1.47;100.00
85055;BME280;75391;48.300;16.352;2024-01-15T04:35:25;98395.94;;;1.34;100.00
85055;BME280;75391;48.300;16.352;2024-01-15T04:37:51;98390.31;;;1.20;100.00
85055;BME280;75391;48.300;16.352;2024-01-15T04:40:17;98374.53;;;1.24;100.00
85055;BME280;75391;48.300;16.352;2024-01-15T04:42:42;98367.50;;;0.70;100.00
85055;BME280;75391;48.300;16.352;2024-01-15T04:45:08;98380.06;;;0.86;100.00
85055;BME280;75391;48.300;16.352;2024-01-15T04:47:33;98390.72;;;0.78;100.00
85055;BME280;75391;48.300;16.352;2024-01-15T04:49:59;98385.72;;;1.00;100.00
85055;BME280;75391;48.300;16.352;2024-01-15T04:52:24;98378.81;;;0.99;100.00
85055;BME280;75391;48.300;16.352;2024-01-15T04:54:50;98381.16;;;1.06;100.00
85055;BME280;75391;48.300;16.352;2024-01-15T04:57:15;98390.91;;;0.72;100.00
85055;BME280;75391;48.300;16.352;2024-01-15T04:59:40;98373.25;;;0.82;100.00
85055;BME280;75391;48.300;16.352;2024-01-15T05:02:06;98371.66;;;0.77;100.00
85055;BME280;75391;48.300;16.352;2024-01-15T05:04:31;98368.81;;;0.56;100.00
85055;BME280;75391;48.300;16.352;2024-01-15T05:06:57;98387.50;;;0.68;100.00
85055;BME280;75391;48.300;16.352;2024-01-15T05:09:22;98381.16;;;0.78;100.00
85055;BME280;75391;48.300;16.352;2024-01-15T05:11:48;98385.81;;;0.97;100.00
85055;BME280;75391;48.300;16.352;2024-01-15T05:14:13;98386.34;;;1.08;100.00
85055;BME280;75391;48.300;16.352;2024-01-15T05:16:39;98393.91;;;1.16;100.00
85055;BME280;75391;48.300;16.352;2024-01-15T05:19:04;98411.91;;;0.64;100.00
85055;BME280;75391;48.300;16.352;2024-01-15T05:21:30;98398.22;;;0.58;100.00
85055;BME280;75391;48.300;16.352;2024-01-15T05:23:55;98385.34;;;0.84;100.00
85055;BME280;75391;48.300;16.352;2024-01-15T05:26:20;98392.50;;;0.76;100.00
85055;BME280;75391;48.300;16.352;2024-01-15T05:28:46;98413.97;;;0.83;100.00
85055;BME280;75391;48.300;16.352;2024-01-15T05:31:11;98386.50;;;0.74;100.00
85055;BME280;75391;48.300;16.352;2024-01-15T05:33:37;98390.28;;;0.62;100.00
85055;BME280;75391;48.300;16.352;2024-01-15T05:36:02;98400.34;;;0.74;100.00
85055;BME280;75391;48.300;16.352;2024-01-15T05:38:28;98400.09;;;0.84;100.00
85055;BME280;75391;48.300;16.352;2024-01-15T05:40:53;98402.69;;;0.84;100.00
85055;BME280;75391;48.300;16.352;2024-01-15T05:43:19;98394.16;;;1.08;100.00
85055;BME280;75391;48.300;16.352;2024-01-15T05:45:44;98409.59;;;1.14;100.00
85055;BME280;75391;48.300;16.352;2024-01-15T05:48:10;98413.25;;;0.48;100.00
85055;BME280;75391;48.300;16.352;2024-01-15T05:50:36;98415.19;;;1.00;100.00
85055;BME280;75391;48.300;16.352;2024-01-15T05:53:01;98416.97;;;0.98;100.00
85055;BME280;75391;48.300;16.352;2024-01-15T05:55:26;98423.53;;;0.51;100.00
85055;BME280;75391;48.300;16.352;2024-01-15T05:57:52;98419.78;;;0.61;100.00
85055;BME280;75391;48.300;16.352;2024-01-15T06:00:17;98420.72;;;0.90;100.00
85055;BME280;75391;48.300;16.352;2024-01-15T06:02:43;98423.63;;;0.79;100.00
85055;BME280;75391;48.300;16.352;2024-01-15T06:05:08;98429.97;;;0.69;100.00
85055;BME280;75391;48.300;16.352;2024-01-15T06:07:34;98430.09;;;0.95;100.00
85055;BME280;75391;48.300;16.352;2024-01-15T06:10:00;98431.06;;;0.91;100.00
85055;BME280;75391;48.300;16.352;2024-01-15T06:12:25;98435.44;;;0.91;100.00
85055;BME280;75391;48.300;16.352;2024-01-15T06:14:51;98432.66;;;0.97;100.00
85055;BME280;75391;48.300;16.352;2024-01-15T06:17:16;98412.97;;;1.16;100.00
85055;BME280;75391;48.300;16.352;2024-01-15T06:19:41;98407.97;;;1.38;100.00
85055;BME280;75391;48.300;16.352;2024-01-15T06:22:07;98407.06;;;0.82;100.00
85055;BME280;75391;48.300;16.352;2024-01-15T06:24:32;98404.47;;;0.82;100.00
85055;BME280;75391;48.300;16.352;2024-01-15T06:26:58;98412.94;;;0.88;100.00
85055;BME280;75391;48.300;16.352;2024-01-15T06:29:25;98414.44;;;0.67;100.00
85055;BME280;75391;48.300;16.352;2024-01-15T06:31:51;98413.03;;;0.85;100.00
85055;BME280;75391;48.300;16.352;2024-01-15T06:34:16;98418.25;;;0.85;100.00
85055;BME280;75391;48.300;16.352;2024-01-15T06:36:42;98432.47;;;1.03;100.00
85055;BME280;75391;48.300;16.352;2024-01-15T06:39:08;98425.38;;;1.08;100.00
85055;BME280;75391;48.300;16.352;2024-01-15T06:41:33;98439.47;;;1.01;100.00
85055;BME280;75391;48.300;16.352;2024-01-15T06:43:58;98436.88;;;1.01;100.00
85055;BME280;75391;48.300;16.352;2024-01-15T06:46:24;98443.97;;;0.94;100.00
85055;BME280;75391;48.300;16.352;2024-01-15T06:48:49;98450.03;;;0.65;100.00
85055;BME280;75391;48.300;16.352;2024-01-15T06:51:15;98454.41;;;0.63;100.00
85055;BME280;75391;48.300;16.352;2024-01-15T06:53:41;98458.19;;;0.83;100.00
85055;BME280;75391;48.300;16.352;2024-01-15T06:56:07;98461.75;;;0.80;100.00
85055;BME280;75391;48.300;16.352;2024-01-15T06:58:33;98466.44;;;0.67;100.00
85055;BME280;75391;48.300;16.352;2024-01-15T07:00:58;98473.22;;;0.73;100.00
85055;BME280;75391;48.300;16.352;2024-01-15T07:03:24;98473.84;;;0.50;100.00
85055;BME280;75391;48.300;16.352;2024-01-15T07:05:49;98478.47;;;0.39;100.00
85055;BME280;75391;48.300;16.352;2024-01-15T07:08:15;98458.63;;;0.67;100.00
85055;BME280;75391;48.300;16.352;2024-01-15T07:10:40;98475.50;;;0.52;100.00
85055;BME280;75391;48.300;16.352;2024-01-15T07:13:05;98474.53;;;0.88;100.00
85055;BME280;75391;48.300;16.352;2024-01-15T07:15:32;98474.97;;;0.71;100.00
85055;BME280;75391;48.300;16.352;2024-01-15T07:17:57;98468.88;;;0.73;100.00
85055;BME280;75391;48.300;16.352;2024-01-15T07:20:23;98470.50;;;0.77;100.00
85055;BME280;75391;48.300;16.352;2024-01-15T07:22:48;98466.16;;;1.08;100.00
85055;BME280;75391;48.300;16.352;2024-01-15T07:25:15;98468.25;;;0.64;100.00
85055;BME280;75391;48.300;16.352;2024-01-15T07:27:41;98473.09;;;0.77;100.00
85055;BME280;75391;48.300;16.352;2024-01-15T07:30:06;98475.25;;;0.93;100.00
85055;BME280;75391;48.300;16.352;2024-01-15T07:32:32;98478.50;;;1.01;100.00
85055;BME280;75391;48.300;16.352;2024-01-15T07:34:57;98503.31;;;0.82;100.00
85055;BME280;75391;48.300;16.352;2024-01-15T07:37:22;98487.34;;;0.94;100.00
85055;BME280;75391;48.300;16.352;2024-01-15T07:39:48;98487.06;;;1.04;100.00
85055;BME280;75391;48.300;16.352;2024-01-15T07:42:14;98487.19;;;1.00;100.00
85055;BME280;75391;48.300;16.352;2024-01-15T07:44:39;98493.06;;;1.06;100.00
85055;BME280;75391;48.300;16.352;2024-01-15T07:47:05;98487.47;;;1.20;100.00
85055;BME280;75391;48.300;16.352;2024-01-15T07:49:30;98487.84;;;1.36;100.00
85055;BME280;75391;48.300;16.352;2024-01-15T07:51:56;98492.66;;;0.91;100.00
85055;BME280;75391;48.300;16.352;2024-01-15T07:54:21;98488.09;;;0.99;100.00
85055;BME280;75391;48.300;16.352;2024-01-15T07:56:57;98498.13;;;1.11;100.00
85055;BME280;75391;48.300;16.352;2024-01-15T07:59:23;98493.41;;;1.25;100.00
85055;BME280;75391;48.300;16.352;2024-01-15T08:01:49;98491.47;;;1.32;100.00
85055;BME280;75391;48.300;16.352;2024-01-15T08:04:14;98479.84;;;1.42;100.00
85055;BME280;75391;48.300;16.352;2024-01-15T08:06:40;98492.16;;;1.67;100.00
85055;BME280;75391;48.300;16.352;2024-01-15T08:09:05;98511.34;;;1.34;100.00
85055;BME280;75391;48.300;16.352;2024-01-15T08:11:31;98502.00;;;1.27;100.00
85055;BME280;75391;48.300;16.352;2024-01-15T08:13:56;98501.34;;;1.50;100.00
85055;BME280;75391;48.300;16.352;2024-01-15T08:16:22;98492.13;;;1.39;100.00
85055;BME280;75391;48.300;16.352;2024-01-15T08:18:48;98486.63;;;1.48;100.00
85055;BME280;75391;48.300;16.352;2024-01-15T08:21:13;98480.91;;;1.66;100.00
85055;BME280;75391;48.300;16.352;2024-01-15T08:23:39;98491.84;;;1.76;100.00
85055;BME280;75391;48.300;16.352;2024-01-15T08:26:04;98483.09;;;1.78;100.00
85055;BME280;75391;48.300;16.352;2024-01-15T08:28:30;98491.06;;;1.74;100.00
85055;BME280;75391;48.300;16.352;2024-01-15T08:30:55;98495.44;;;1.72;100.00
85055;BME280;75391;48.300;16.352;2024-01-15T08:33:21;98501.56;;;1.71;100.00
85055;BME280;75391;48.300;16.352;2024-01-15T08:35:46;98498.63;;;1.81;100.00
85055;BME280;75391;48.300;16.352;2024-01-15T08:38:12;98498.19;;;2.22;100.00
85055;BME280;75391;48.300;16.352;2024-01-15T08:40:37;98503.97;;;2.05;100.00
85055;BME280;75391;48.300;16.352;2024-01-15T08:43:03;98482.13;;;2.09;100.00
85055;BME280;75391;48.300;16.352;2024-01-15T08:45:28;98483.56;;;1.91;100.00
85055;BME280;75391;48.300;16.352;2024-01-15T08:47:54;98473.34;;;2.11;100.00
85055;BME280;75391;48.300;16.352;2024-01-15T08:50:19;98475.56;;;1.97;100.00
85055;BME280;75391;48.300;16.352;2024-01-15T08:52:44;98469.66;;;1.64;100.00
85055;BME280;75391;48.300;16.352;2024-01-15T08:55:10;98474.38;;;1.79;100.00
85055;BME280;75391;48.300;16.352;2024-01-15T08:57:35;98492.03;;;2.24;100.00
85055;BME280;75391;48.300;16.352;2024-01-15T09:00:00;98477.31;;;1.97;100.00
85055;BME280;75391;48.300;16.352;2024-01-15T09:02:26;98484.75;;;2.07;100.00
85055;BME280;75391;48.300;16.352;2024-01-15T09:04:51;98493.28;;;2.39;100.00
85055;BME280;75391;48.300;16.352;2024-01-15T09:07:17;98493.09;;;1.92;100.00
85055;BME280;75391;48.300;16.352;2024-01-15T09:09:42;98486.31;;;2.39;100.00
85055;BME280;75391;48.300;16.352;2024-01-15T09:12:08;98483.69;;;2.13;100.00
85055;BME280;75391;48.300;16.352;2024-01-15T09:14:33;98511.50;;;2.14;100.00
85055;BME280;75391;48.300;16.352;2024-01-15T09:16:59;98472.97;;;2.72;100.00
85055;BME280;75391;48.300;16.352;2024-01-15T09:19:24;98481.34;;;2.82;100.00
85055;BME280;75391;48.300;16.352;2024-01-15T09:21:49;98481.44;;;2.55;100.00
85055;BME280;75391;48.300;16.352;2024-01-15T09:24:15;98480.41;;;2.59;100.00
85055;BME280;75391;48.300;16.352;2024-01-15T09:26:40;98468.53;;;2.99;100.00
85055;BME280;75391;48.300;16.352;2024-01-15T09:29:05;98479.44;;;2.62;100.00
85055;BME280;75391;48.300;16.352;2024-01-15T09:31:31;98469.63;;;2.93;100.00
85055;BME280;75391;48.300;16.352;2024-01-15T09:33:56;98486.16;;;2.69;100.00
85055;BME280;75391;48.300;16.352;2024-01-15T09:36:22;98492.84;;;2.76;100.00
85055;BME280;75391;48.300;16.352;2024-01-15T09:38:48;98470.06;;;2.81;100.00
85055;BME280;75391;48.300;16.352;2024-01-15T09:41:13;98474.69;;;2.98;100.00
85055;BME280;75391;48.300;16.352;2024-01-15T09:43:39;98466.72;;;3.01;100.00
85055;BME280;75391;48.300;16.352;2024-01-15T09:46:05;98483.91;;;2.83;100.00
85055;BME280;75391;48.300;16.352;2024-01-15T09:48:31;98482.53;;;2.73;100.00
85055;BME280;75391;48.300;16.352;2024-01-15T09:50:57;98476.44;;;2.98;100.00
85055;BME280;75391;48.300;16.352;2024-01-15T09:53:23;98482.75;;;2.90;100.00
85055;BME280;75391;48.300;16.352;2024-01-15T09:55:50;98476.91;;;3.09;100.00
85055;BME280;75391;48.300;16.352;2024-01-15T09:58:15;98478.13;;;2.99;100.00
85055;BME280;75391;48.300;16.352;2024-01-15T10:00:42;98479.53;;;3.07;100.00
85055;BME280;75391;48.300;16.352;2024-01-15T10:03:09;98468.25;;;2.83;100.00
85055;BME280;75391;48.300;16.352;2024-01-15T10:05:35;98470.59;;;2.66;100.00
85055;BME280;75391;48.300;16.352;2024-01-15T10:08:00;98446.44;;;3.08;100.00
85055;BME280;75391;48.300;16.352;2024-01-15T10:10:26;98452.75;;;2.54;100.00
85055;BME280;75391;48.300;16.352;2024-01-15T10:12:52;98433.78;;;2.50;100.00
85055;BME280;75391;48.300;16.352;2024-01-15T10:15:22;98444.63;;;2.63;100.00
85055;BME280;75391;48.300;16.352;2024-01-15T10:17:47;98416.56;;;2.93;100.00
85055;BME280;75391;48.300;16.352;2024-01-15T10:20:13;98417.94;;;2.80;100.00
85055;BME280;75391;48.300;16.352;2024-01-15T10:22:42;98419.97;;;2.95;100.00
85055;BME280;75391;48.300;16.352;2024-01-15T10:25:10;98425.94;;;2.99;100.00
85055;BME280;75391;48.300;16.352;2024-01-15T10:27:36;98417.47;;;2.92;100.00
85055;BME280;75391;48.300;16.352;2024-01-15T10:30:02;98426.16;;;2.92;100.00
85055;BME280;75391;48.300;16.352;2024-01-15T10:32:27;98403.84;;;2.84;100.00
85055;BME280;75391;48.300;16.352;2024-01-15T10:34:54;98395.44;;;3.22;100.00
85055;BME280;75391;48.300;16.352;2024-01-15T10:37:20;98384.16;;;3.44;100.00
85055;BME280;75391;48.300;16.352;2024-01-15T10:39:49;98407.28;;;3.08;100.00
85055;BME280;75391;48.300;16.352;2024-01-15T10:42:15;98385.47;;;3.32;100.00
85055;BME280;75391;48.300;16.352;2024-01-15T10:44:41;98386.38;;;3.53;100.00
85055;BME280;75391;48.300;16.352;2024-01-15T10:47:07;98378.22;;;3.61;100.00
85055;BME280;75391;48.300;16.352;2024-01-15T10:49:32;98383.19;;;3.01;100.00
85055;BME280;75391;48.300;16.352;2024-01-15T10:51:58;98389.25;;;3.47;100.00
85055;BME280;75391;48.300;16.352;2024-01-15T10:54:24;98383.28;;;3.43;100.00
85055;BME280;75391;48.300;16.352;2024-01-15T10:56:52;98380.66;;;3.65;100.00
85055;BME280;75391;48.300;16.352;2024-01-15T10:59:20;98390.50;;;3.37;100.00
85055;BME280;75391;48.300;16.352;2024-01-15T11:01:45;98387.38;;;3.51;100.00
85055;BME280;75391;48.300;16.352;2024-01-15T11:04:11;98389.09;;;3.72;100.00
85055;BME280;75391;48.300;16.352;2024-01-15T11:06:45;98393.41;;;3.73;100.00
85055;BME280;75391;48.300;16.352;2024-01-15T11:09:12;98393.13;;;3.59;100.00
85055;BME280;75391;48.300;16.352;2024-01-15T11:11:45;98387.56;;;3.66;100.00
85055;BME280;75391;48.300;16.352;2024-01-15T11:14:11;98388.72;;;3.81;100.00
85055;BME280;75391;48.300;16.352;2024-01-15T11:16:56;98394.91;;;3.79;100.00
85055;BME280;75391;48.300;16.352;2024-01-15T11:19:22;98391.44;;;4.00;100.00
85055;BME280;75391;48.300;16.352;2024-01-15T11:21:47;98385.94;;;3.86;100.00
85055;BME280;75391;48.300;16.352;2024-01-15T11:24:38;98397.75;;;3.94;100.00
85055;BME280;75391;48.300;16.352;2024-01-15T11:27:04;98396.06;;;3.51;100.00
85055;BME280;75391;48.300;16.352;2024-01-15T11:29:34;98397.91;;;3.69;100.00
85055;BME280;75391;48.300;16.352;2024-01-15T11:32:06;98388.81;;;3.58;100.00
85055;BME280;75391;48.300;16.352;2024-01-15T11:37:20;98407.38;;;3.72;100.00
85055;BME280;75391;48.300;16.352;2024-01-15T11:39:45;98388.00;;;3.78;100.00
85055;BME280;75391;48.300;16.352;2024-01-15T11:42:11;98381.09;;;3.55;100.00
85055;BME280;75391;48.300;16.352;2024-01-15T11:44:37;98396.34;;;3.43;100.00
85055;BME280;75391;48.300;16.352;2024-01-15T11:47:06;98398.94;;;3.43;100.00
85055;BME280;75391;48.300;16.352;2024-01-15T11:52:11;98396.81;;;3.09;100.00
85055;BME280;75391;48.300;16.352;2024-01-15T11:54:38;98389.22;;;3.03;100.00
85055;BME280;75391;48.300;16.352;2024-01-15T11:57:10;98376.25;;;3.45;100.00
85055;BME280;75391;48.300;16.352;2024-01-15T11:59:41;98370.63;;;3.55;100.00
85055;BME280;75391;48.300;16.352;2024-01-15T12:02:07;98367.66;;;3.64;100.00
85055;BME280;75391;48.300;16.352;2024-01-15T12:04:32;98353.22;;;3.11;100.00
85055;BME280;75391;48.300;16.352;2024-01-15T12:06:58;98348.44;;;3.44;100.00
85055;BME280;75391;48.300;16.352;2024-01-15T12:09:23;98352.56;;;3.28;100.00
85055;BME280;75391;48.300;16.352;2024-01-15T12:11:56;98360.13;;;3.12;100.00
85055;BME280;75391;48.300;16.352;2024-01-15T12:14:26;98359.41;;;3.09;100.00
85055;BME280;75391;48.300;16.352;2024-01-15T12:16:51;98364.75;;;3.49;100.00
85055;BME280;75391;48.300;16.352;2024-01-15T12:19:17;98397.78;;;2.83;100.00
85055;BME280;75391;48.300;16.352;2024-01-15T12:21:42;98366.81;;;2.51;100.00
85055;BME280;75391;48.300;16.352;2024-01-15T12:24:08;98370.06;;;2.81;100.00
85055;BME280;75391;48.300;16.352;2024-01-15T12:26:34;98365.34;;;2.44;100.00
85055;BME280;75391;48.300;16.352;2024-01-15T12:29:02;98371.00;;;2.55;100.00
85055;BME280;75391;48.300;16.352;2024-01-15T12:31:28;98367.22;;;2.63;100.00
85055;BME280;75391;48.300;16.352;2024-01-15T12:33:56;98356.94;;;2.82;100.00
85055;BME280;75391;48.300;16.352;2024-01-15T12:36:21;98365.69;;;2.81;100.00
85055;BME280;75391;48.300;16.352;2024-01-15T12:38:47;98350.25;;;2.75;100.00
85055;BME280;75391;48.300;16.352;2024-01-15T12:41:12;98352.66;;;3.03;100.00
85055;BME280;75391;48.300;16.352;2024-01-15T12:43:38;98350.78;;;2.85;100.00
85055;BME280;75391;48.300;16.352;2024-01-15T12:46:03;98343.16;;;2.79;100.00
85055;BME280;75391;48.300;16.352;2024-01-15T12:48:28;98356.78;;;2.87;100.00